Time;durP1;ratioP1;P1;durP2;ratioP2;P2;SDS_P1;SDS_P2;PMS_P1;PMS_P2;Temp;Humidity;BMP_temperature;BMP_pressure;BME280_temperature;BME280_humidity;BME280_pressure;Samples;Min_cycle;Max_cycle;Signal;HPM_P1;HPM_P2
2021/07/14 00:00:37;;;;;;;18.30;16.38;;;21.80;99.90;;;;;;5040598;28;20568;-58
2021/07/14 00:03:02;;;;;;;21.38;15.25;;;21.90;99.90;;;;;;5031586;28;20041;-62
2021/07/14 00:05:28;;;;;;;16.83;15.23;;;21.90;99.90;;;;;;5041446;28;20042;-61
2021/07/14 00:07:54;;;;;;;16.77;15.10;;;22.00;99.90;;;;;;5046448;28;20107;-59
2021/07/14 00:10:24;;;;;;;17.73;15.77;;;22.00;99.80;;;;;;5050825;28;20041;-59
2021/07/14 00:12:57;;;;;;;19.30;17.40;;;22.00;99.70;;;;;;5051048;28;20045;-55
2021/07/14 00:23:13;;;;;;;17.50;15.75;;;21.90;99.90;;;;;;5051419;28;20037;-56
2021/07/14 00:25:39;;;;;;;17.65;15.85;;;21.90;99.90;;;;;;5054905;28;20082;-58
2021/07/14 00:28:05;;;;;;;17.63;15.68;;;21.80;99.70;;;;;;5055027;28;20041;-55
2021/07/14 00:30:31;;;;;;;17.27;15.77;;;21.90;99.90;;;;;;5055216;28;20480;-53
2021/07/14 00:32:57;;;;;;;15.82;14.43;;;22.00;99.80;;;;;;5054923;28;20516;-55
2021/07/14 00:35:23;;;;;;;16.58;14.85;;;22.00;99.80;;;;;;5054616;28;20029;-59
2021/07/14 00:37:49;;;;;;;18.40;16.50;;;22.00;99.80;;;;;;5055140;28;20058;-58
2021/07/14 00:40:15;;;;;;;19.52;16.83;;;22.00;99.80;;;;;;5047645;28;20099;-56
2021/07/14 00:42:42;;;;;;;17.60;15.90;;;22.10;99.90;;;;;;5049859;28;20041;-58
2021/07/14 00:45:08;;;;;;;18.20;16.40;;;22.10;99.90;;;;;;5054366;28;20500;-58
2021/07/14 00:47:36;;;;;;;21.42;18.20;;;22.10;99.90;;;;;;5054317;28;20140;-57
2021/07/14 00:50:04;;;;;;;19.38;17.58;;;22.00;99.70;;;;;;5054591;28;20044;-53
2021/07/14 00:52:30;;;;;;;18.90;17.10;;;22.00;99.90;;;;;;5052611;28;20033;-52
2021/07/14 00:54:57;;;;;;;19.80;17.85;;;21.90;99.90;;;;;;5054911;28;20025;-55
2021/07/14 00:57:27;;;;;;;20.13;18.20;;;21.90;99.90;;;;;;5053809;28;20094;-61
2021/07/14 00:59:53;;;;;;;19.80;17.90;;;21.80;99.90;;;;;;5037515;28;20035;-60
2021/07/14 01:02:18;;;;;;;20.35;18.45;;;21.70;99.90;;;;;;5053392;28;20043;-61
2021/07/14 01:05:06;;;;;;;20.75;18.60;;;21.60;99.90;;;;;;5051610;28;21034;-61
2021/07/14 01:07:38;;;;;;;20.98;18.98;;;21.50;99.90;;;;;;5046649;28;20090;-60
2021/07/14 01:10:04;;;;;;;20.02;18.05;;;21.50;99.90;;;;;;5054697;28;20044;-59
2021/07/14 01:12:59;;;;;;;20.17;18.25;;;21.50;99.90;;;;;;5046527;28;20041;-58
2021/07/14 01:15:27;;;;;;;21.52;19.42;;;21.40;99.90;;;;;;5045662;28;20491;-54
2021/07/14 01:18:03;;;;;;;21.45;19.30;;;21.40;99.90;;;;;;5036431;28;20136;-55
2021/07/14 01:20:46;;;;;;;22.90;20.70;;;21.40;99.90;;;;;;5054399;28;20037;-58
2021/07/14 01:23:30;;;;;;;22.20;20.10;;;21.40;99.90;;;;;;5054600;28;20480;-56
2021/07/14 01:26:17;;;;;;;22.87;20.73;;;21.30;99.90;;;;;;5054058;28;20063;-57
2021/07/14 01:28:46;;;;;;;21.85;19.63;;;21.20;99.90;;;;;;5052614;28;20033;-57
2021/07/14 01:31:14;;;;;;;22.00;19.75;;;21.20;99.90;;;;;;5026340;28;20033;-56
2021/07/14 01:33:42;;;;;;;21.13;18.90;;;21.30;99.90;;;;;;5050915;28;20488;-51
2021/07/14 01:36:13;;;;;;;23.00;20.60;;;21.20;99.90;;;;;;5053335;28;20128;-56
2021/07/14 01:38:42;;;;;;;21.40;19.20;;;21.20;99.90;;;;;;5054353;28;20033;-55
2021/07/14 01:41:08;;;;;;;21.15;19.05;;;21.20;99.90;;;;;;5053256;28;20907;-56
2021/07/14 01:43:44;;;;;;;20.45;18.52;;;21.20;99.90;;;;;;5056074;28;20083;-56
2021/07/14 01:46:12;;;;;;;20.10;18.10;;;21.10;99.90;;;;;;5053670;28;20405;-57
2021/07/14 01:48:41;;;;;;;22.00;19.75;;;21.00;99.90;;;;;;5053731;28;20541;-57
2021/07/14 01:51:08;;;;;;;20.35;18.27;;;20.80;99.90;;;;;;5041983;28;20029;-56
2021/07/14 01:53:36;;;;;;;19.23;17.40;;;20.80;99.90;;;;;;5054171;28;20106;-56
2021/07/14 01:56:08;;;;;;;21.15;19.05;;;20.90;99.90;;;;;;5053471;28;20033;-57
2021/07/14 01:58:36;;;;;;;20.67;18.77;;;20.90;99.90;;;;;;5045818;28;20041;-55
2021/07/14 02:01:04;;;;;;;21.00;19.02;;;20.70;99.90;;;;;;5053724;28;20028;-57
2021/07/14 02:05:59;;;;;;;21.25;19.05;;;20.70;99.90;;;;;;5042083;28;20041;-57
2021/07/14 02:08:25;;;;;;;19.88;18.02;;;20.50;99.90;;;;;;5052808;28;20041;-53
2021/07/14 02:10:52;;;;;;;20.15;18.35;;;20.70;99.90;;;;;;5053339;28;20469;-56
2021/07/14 02:13:19;;;;;;;21.00;18.58;;;20.60;99.90;;;;;;5053371;28;20047;-58
2021/07/14 02:15:50;;;;;;;18.75;16.92;;;20.70;99.90;;;;;;5052711;28;20029;-57
2021/07/14 02:18:21;;;;;;;19.30;15.77;;;20.70;99.90;;;;;;5052425;28;20503;-53
2021/07/14 02:20:47;;;;;;;16.75;15.05;;;20.70;99.90;;;;;;5053268;28;20041;-56
2021/07/14 02:23:13;;;;;;;17.33;15.75;;;20.80;99.90;;;;;;5053036;28;20404;-58
2021/07/14 02:25:38;;;;;;;15.15;13.70;;;20.70;99.90;;;;;;5052457;28;20388;-56
2021/07/14 02:28:04;;;;;;;15.98;14.27;;;20.70;99.90;;;;;;5052907;28;20039;-56
2021/07/14 02:30:30;;;;;;;16.48;14.93;;;20.70;99.90;;;;;;5052792;28;20459;-56
2021/07/14 02:33:01;;;;;;;14.05;12.65;;;20.60;99.90;;;;;;5052607;28;20040;-57
2021/07/14 02:35:28;;;;;;;12.68;11.48;;;20.40;99.90;;;;;;5052890;28;20090;-59
2021/07/14 02:38:03;;;;;;;13.07;11.80;;;20.50;99.90;;;;;;5052642;28;20025;-58
2021/07/14 02:40:44;;;;;;;12.35;11.13;;;20.50;99.90;;;;;;5043350;28;20021;-58
2021/07/14 02:43:11;;;;;;;10.30;9.30;;;20.50;99.90;;;;;;5051725;28;20392;-56
2021/07/14 02:45:43;;;;;;;9.10;8.07;;;20.60;99.90;;;;;;5052350;28;20033;-58
2021/07/14 02:48:11;;;;;;;10.18;8.43;;;20.60;99.90;;;;;;5052132;28;20032;-56
2021/07/14 02:50:37;;;;;;;9.63;8.73;;;20.60;99.90;;;;;;5052525;28;20040;-52
2021/07/14 02:53:15;;;;;;;8.88;7.97;;;20.70;99.90;;;;;;5052539;28;20124;-52
2021/07/14 02:55:44;;;;;;;7.80;7.10;;;20.70;99.90;;;;;;5052259;28;20089;-57
2021/07/14 02:58:12;;;;;;;9.68;7.75;;;20.70;99.90;;;;;;5051950;28;20035;-53
2021/07/14 03:00:39;;;;;;;9.90;7.93;;;20.70;99.90;;;;;;5052308;28;20041;-55
2021/07/14 03:03:07;;;;;;;8.30;7.50;;;20.80;99.90;;;;;;5052467;28;20039;-54
2021/07/14 03:05:34;;;;;;;10.30;8.30;;;20.80;99.90;;;;;;5050594;28;20120;-58
2021/07/14 03:08:03;;;;;;;8.27;7.50;;;20.80;99.90;;;;;;5052387;28;20039;-54
2021/07/14 03:10:30;;;;;;;9.15;8.23;;;20.90;99.90;;;;;;5052813;28;20104;-57
2021/07/14 03:13:02;;;;;;;9.88;7.75;;;20.90;99.90;;;;;;5051986;28;20108;-58
2021/07/14 03:15:29;;;;;;;7.88;7.07;;;20.90;99.90;;;;;;5052048;28;20102;-54
2021/07/14 03:17:56;;;;;;;8.05;7.38;;;20.90;99.90;;;;;;5052171;28;20017;-56
2021/07/14 03:20:22;;;;;;;8.57;7.53;;;20.80;99.90;;;;;;5046112;28;20040;-58
2021/07/14 03:22:49;;;;;;;9.00;8.10;;;20.70;99.90;;;;;;5052090;28;20040;-54
2021/07/14 03:25:17;;;;;;;8.10;7.30;;;20.50;99.90;;;;;;5051387;28;20037;-57
2021/07/14 03:27:46;;;;;;;8.13;7.32;;;20.30;99.90;;;;;;5051669;28;20493;-58
2021/07/14 03:30:12;;;;;;;8.68;7.28;;;20.30;99.90;;;;;;5051674;28;20033;-56
2021/07/14 03:32:39;;;;;;;7.70;6.63;;;20.20;99.90;;;;;;5052743;28;20048;-55
2021/07/14 03:35:05;;;;;;;9.10;7.22;;;20.10;99.90;;;;;;5051669;28;20049;-57
2021/07/14 03:37:31;;;;;;;13.23;7.03;;;20.00;99.90;;;;;;5038966;28;20068;-56
2021/07/14 03:39:57;;;;;;;8.15;6.38;;;20.00;99.90;;;;;;5048642;28;20049;-54
2021/07/14 03:42:24;;;;;;;9.68;6.40;;;20.00;99.90;;;;;;5052934;28;20025;-57
2021/07/14 03:44:52;;;;;;;9.00;6.75;;;19.80;99.90;;;;;;5032095;28;20039;-51
2021/07/14 03:47:19;;;;;;;7.20;6.25;;;19.90;99.90;;;;;;5048374;28;20035;-54
2021/07/14 03:49:45;;;;;;;6.72;6.00;;;19.80;99.90;;;;;;5052547;28;20033;-55
2021/07/14 03:52:13;;;;;;;5.97;5.47;;;19.70;99.90;;;;;;5051938;28;20037;-57
2021/07/14 03:54:39;;;;;;;8.80;5.60;;;19.80;99.90;;;;;;5052069;28;20037;-57
2021/07/14 03:57:07;;;;;;;10.65;5.65;;;19.80;99.90;;;;;;5051327;28;20037;-52
2021/07/14 03:59:33;;;;;;;8.88;5.10;;;19.90;99.90;;;;;;5051605;28;20037;-54
2021/07/14 04:02:01;;;;;;;7.47;5.35;;;19.80;99.90;;;;;;5033291;28;20463;-54
2021/07/14 04:04:27;;;;;;;8.32;4.95;;;19.80;99.90;;;;;;5051304;28;20028;-54
2021/07/14 04:07:00;;;;;;;7.10;4.95;;;19.80;99.90;;;;;;5039178;28;20116;-54
2021/07/14 04:09:26;;;;;;;7.95;4.75;;;19.80;99.90;;;;;;5051773;28;20069;-55
2021/07/14 04:11:57;;;;;;;6.05;4.93;;;19.70;99.90;;;;;;5051240;28;20413;-56
2021/07/14 04:14:25;;;;;;;9.38;5.30;;;19.80;99.90;;;;;;5051722;28;20596;-56
2021/07/14 04:16:52;;;;;;;5.13;4.25;;;19.80;99.90;;;;;;5050845;28;20037;-55
2021/07/14 04:19:18;;;;;;;11.98;4.53;;;19.80;99.90;;;;;;5042537;28;20112;-53
2021/07/14 04:21:44;;;;;;;8.60;4.40;;;19.80;99.90;;;;;;5048043;28;20506;-54
2021/07/14 04:24:09;;;;;;;6.40;4.40;;;19.70;99.90;;;;;;5051397;28;20045;-55
2021/07/14 04:26:35;;;;;;;6.35;4.45;;;19.60;99.90;;;;;;5050937;28;20098;-55
2021/07/14 04:29:02;;;;;;;10.45;4.35;;;19.60;99.90;;;;;;5050948;28;20404;-56
2021/07/14 04:31:27;;;;;;;7.80;4.10;;;19.60;99.90;;;;;;5050977;28;20033;-58
2021/07/14 04:33:53;;;;;;;6.18;4.30;;;19.60;99.90;;;;;;5051006;28;20025;-58
2021/07/14 04:36:18;;;;;;;10.60;4.68;;;19.70;99.90;;;;;;5051156;28;20044;-54
2021/07/14 04:38:44;;;;;;;12.07;4.75;;;19.60;99.90;;;;;;5051566;28;20043;-56
2021/07/14 04:41:09;;;;;;;8.75;4.47;;;19.60;99.90;;;;;;5043444;28;20056;-56
2021/07/14 04:43:35;;;;;;;7.38;4.35;;;19.70;99.90;;;;;;5024206;28;20057;-57
2021/07/14 04:46:01;;;;;;;10.73;5.80;;;19.70;99.90;;;;;;5033156;28;20040;-55
2021/07/14 04:48:26;;;;;;;5.47;3.90;;;19.80;99.90;;;;;;5051528;28;20101;-57
2021/07/14 04:50:52;;;;;;;6.85;4.20;;;19.60;99.90;;;;;;5052030;28;20832;-56
2021/07/14 04:53:18;;;;;;;16.92;4.35;;;19.60;99.90;;;;;;5051627;28;20033;-54
2021/07/14 04:55:44;;;;;;;8.85;3.75;;;19.50;99.90;;;;;;5051091;28;20056;-57
2021/07/14 04:58:10;;;;;;;10.23;4.45;;;19.60;99.90;;;;;;5052607;28;20059;-55
2021/07/14 05:00:35;;;;;;;5.63;3.97;;;19.60;99.90;;;;;;5051770;28;20079;-52
2021/07/14 05:03:01;;;;;;;9.82;4.18;;;19.60;99.90;;;;;;5051274;28;20036;-52
2021/07/14 05:05:27;;;;;;;10.98;4.10;;;19.70;99.90;;;;;;5046887;28;20090;-55
2021/07/14 05:07:52;;;;;;;9.52;4.30;;;19.80;99.90;;;;;;5050967;28;20049;-59
2021/07/14 05:10:20;;;;;;;9.63;4.13;;;19.80;99.90;;;;;;5052648;28;20040;-56
2021/07/14 05:12:47;;;;;;;6.85;3.90;;;19.80;99.90;;;;;;5054638;28;20029;-51
2021/07/14 05:15:13;;;;;;;7.43;3.88;;;19.80;99.90;;;;;;5054591;28;20451;-55
2021/07/14 05:17:39;;;;;;;9.55;4.07;;;19.90;99.90;;;;;;5045877;28;20049;-55
2021/07/14 05:20:06;;;;;;;5.25;4.03;;;19.90;99.90;;;;;;5046723;28;20061;-55
2021/07/14 05:22:32;;;;;;;6.28;3.58;;;20.00;99.90;;;;;;5055039;28;20055;-56
2021/07/14 05:24:58;;;;;;;8.70;4.45;;;20.10;99.80;;;;;;5036746;28;20037;-55
2021/07/14 05:27:24;;;;;;;12.55;5.10;;;20.10;99.50;;;;;;5053921;28;20124;-57
2021/07/14 05:29:50;;;;;;;9.30;4.60;;;20.20;99.50;;;;;;5054188;28;20168;-54
2021/07/14 05:32:17;;;;;;;8.15;4.28;;;20.20;99.40;;;;;;5055025;28;20052;-56
2021/07/14 05:34:42;;;;;;;9.98;4.18;;;20.20;99.50;;;;;;5055015;28;20029;-54
2021/07/14 05:37:08;;;;;;;12.10;5.03;;;20.10;99.20;;;;;;5053914;28;20043;-54
2021/07/14 05:39:34;;;;;;;9.68;4.20;;;20.10;99.30;;;;;;5051530;28;20041;-55
2021/07/14 05:42:01;;;;;;;11.55;4.72;;;20.10;99.60;;;;;;5045768;28;20045;-56
2021/07/14 05:44:26;;;;;;;7.93;4.30;;;20.10;99.70;;;;;;5041918;28;20127;-55
2021/07/14 05:46:52;;;;;;;14.00;4.40;;;20.10;99.80;;;;;;5054003;28;20143;-58
2021/07/14 05:49:18;;;;;;;7.95;3.80;;;20.10;99.60;;;;;;5053381;28;20052;-56
2021/07/14 05:51:44;;;;;;;9.20;4.15;;;20.00;99.70;;;;;;5054288;28;20025;-55
2021/07/14 05:54:10;;;;;;;8.82;3.63;;;20.00;99.50;;;;;;5054682;28;20037;-54
2021/07/14 05:56:36;;;;;;;12.32;4.30;;;20.10;99.40;;;;;;5053385;28;20063;-55
2021/07/14 05:59:01;;;;;;;14.57;4.75;;;20.00;99.30;;;;;;5053798;28;20063;-56
2021/07/14 06:01:27;;;;;;;11.93;3.72;;;19.90;99.40;;;;;;5053662;28;20033;-56
2021/07/14 06:03:52;;;;;;;12.27;3.80;;;19.80;99.70;;;;;;5049941;28;20033;-52
2021/07/14 06:06:18;;;;;;;12.00;3.60;;;19.90;99.60;;;;;;5038945;28;20113;-54
2021/07/14 06:08:43;;;;;;;10.23;3.30;;;19.90;99.50;;;;;;5053220;28;20052;-52
2021/07/14 06:11:10;;;;;;;9.82;4.00;;;19.90;99.80;;;;;;5054232;28;20116;-56
2021/07/14 06:13:35;;;;;;;12.85;4.38;;;19.90;99.60;;;;;;5053577;28;20045;-57
2021/07/14 06:16:01;;;;;;;7.68;3.88;;;19.80;99.40;;;;;;5053396;28;20033;-55
2021/07/14 06:18:27;;;;;;;10.15;3.78;;;19.90;99.60;;;;;;5051950;28;20029;-53
2021/07/14 06:20:53;;;;;;;10.77;4.03;;;19.80;99.40;;;;;;5053673;28;20484;-57
2021/07/14 06:23:18;;;;;;;11.38;4.03;;;19.80;99.60;;;;;;5040284;28;20051;-56
2021/07/14 06:25:45;;;;;;;11.93;3.85;;;19.80;99.40;;;;;;5054061;28;20048;-57
2021/07/14 06:28:13;;;;;;;9.52;4.05;;;19.70;99.60;;;;;;5053390;28;20039;-57
2021/07/14 06:30:49;;;;;;;7.95;3.90;;;19.70;99.60;;;;;;5048921;28;20047;-56
2021/07/14 06:33:15;;;;;;;11.05;3.70;;;19.60;99.70;;;;;;5046576;28;20029;-57
2021/07/14 06:35:41;;;;;;;12.55;4.32;;;19.70;99.60;;;;;;5053007;28;20049;-54
2021/07/14 06:38:07;;;;;;;10.35;3.60;;;19.60;99.80;;;;;;5053142;28;20049;-56
2021/07/14 06:40:36;;;;;;;11.80;4.93;;;19.60;99.60;;;;;;5042796;28;20492;-55
2021/07/14 06:43:02;;;;;;;12.18;4.78;;;19.70;99.50;;;;;;5033556;28;20041;-55
2021/07/14 06:45:28;;;;;;;8.95;4.20;;;19.60;99.20;;;;;;5040110;28;20072;-56
2021/07/14 06:47:54;;;;;;;16.17;5.30;;;19.60;99.70;;;;;;5053108;28;20132;-57
2021/07/14 06:50:19;;;;;;;15.15;5.38;;;19.50;99.80;;;;;;5052409;28;20040;-56
2021/07/14 06:52:46;;;;;;;7.72;4.45;;;19.60;99.70;;;;;;5044316;28;20504;-58
2021/07/14 06:55:12;;;;;;;12.52;4.82;;;19.60;99.60;;;;;;5052484;28;20044;-53
2021/07/14 06:57:39;;;;;;;14.02;4.53;;;19.60;99.30;;;;;;5051858;28;20037;-57
2021/07/14 07:00:06;;;;;;;11.65;4.10;;;19.60;99.40;;;;;;5053167;28;20028;-52
2021/07/14 07:02:32;;;;;;;11.73;4.90;;;19.60;99.50;;;;;;5035892;28;20400;-56
2021/07/14 07:04:57;;;;;;;13.45;4.13;;;19.50;99.20;;;;;;5041480;28;20041;-53
2021/07/14 07:07:23;;;;;;;8.82;4.10;;;19.50;99.40;;;;;;5049672;28;20103;-58
2021/07/14 07:09:48;;;;;;;15.48;4.82;;;19.50;99.20;;;;;;5052465;28;20033;-58
2021/07/14 07:12:14;;;;;;;15.00;4.13;;;19.50;99.40;;;;;;5046409;28;20037;-52
2021/07/14 07:14:42;;;;;;;17.38;4.00;;;19.60;98.90;;;;;;5052740;28;20072;-56
2021/07/14 07:17:08;;;;;;;8.68;3.90;;;19.60;98.80;;;;;;5052359;28;20492;-57
2021/07/14 07:19:33;;;;;;;12.77;4.45;;;19.50;99.20;;;;;;5052861;28;20233;-55
2021/07/14 07:21:59;;;;;;;16.85;4.60;;;19.60;99.00;;;;;;5021051;28;20067;-54
2021/07/14 07:24:25;;;;;;;10.80;4.35;;;19.60;98.90;;;;;;5050906;28;20060;-54
2021/07/14 07:26:50;;;;;;;10.00;3.63;;;19.50;99.00;;;;;;5052349;28;20029;-56
2021/07/14 07:29:17;;;;;;;12.18;3.95;;;19.50;99.10;;;;;;5052232;28;20040;-54
2021/07/14 07:31:43;;;;;;;12.23;3.95;;;19.50;99.00;;;;;;5043211;28;20052;-54
2021/07/14 07:34:08;;;;;;;7.32;3.20;;;19.60;99.10;;;;;;5043477;28;20037;-53
2021/07/14 07:36:34;;;;;;;15.35;3.83;;;19.60;98.90;;;;;;5051358;28;20033;-54
2021/07/14 07:39:00;;;;;;;11.95;4.18;;;19.60;99.00;;;;;;5046082;28;20115;-56
2021/07/14 07:41:26;;;;;;;14.23;4.45;;;19.60;99.10;;;;;;5044697;28;20037;-55
2021/07/14 07:43:54;;;;;;;8.25;4.10;;;19.70;98.80;;;;;;5032240;28;20045;-56
2021/07/14 07:46:20;;;;;;;9.55;3.97;;;19.80;98.80;;;;;;5045528;28;20052;-56
2021/07/14 07:48:45;;;;;;;11.10;3.50;;;19.80;98.70;;;;;;5034699;28;20040;-55
2021/07/14 07:51:11;;;;;;;15.30;4.10;;;19.80;98.20;;;;;;5038963;28;20025;-57
2021/07/14 07:53:37;;;;;;;9.60;4.15;;;19.80;98.40;;;;;;5038942;28;20072;-57
2021/07/14 07:56:04;;;;;;;6.28;3.40;;;19.70;98.60;;;;;;5053215;28;20444;-58
2021/07/14 07:58:29;;;;;;;8.73;4.30;;;19.80;98.50;;;;;;5053883;28;20067;-57
2021/07/14 08:00:55;;;;;;;7.13;3.55;;;19.80;98.40;;;;;;5043598;28;20408;-53
2021/07/14 08:03:21;;;;;;;10.77;3.80;;;19.80;98.40;;;;;;5016092;28;20481;-54
2021/07/14 08:05:47;;;;;;;11.35;3.95;;;19.90;98.20;;;;;;5033063;28;20056;-58
2021/07/14 08:08:12;;;;;;;11.90;4.35;;;19.90;98.00;;;;;;5049743;28;20064;-56
2021/07/14 08:10:38;;;;;;;10.95;3.40;;;19.90;98.20;;;;;;5041159;28;20137;-56
2021/07/14 08:13:04;;;;;;;7.32;3.75;;;19.90;98.20;;;;;;5053796;28;20037;-53
2021/07/14 08:15:31;;;;;;;8.57;3.58;;;19.80;98.20;;;;;;5035867;28;20037;-52
2021/07/14 08:17:57;;;;;;;10.43;3.33;;;19.90;98.00;;;;;;5048616;28;20098;-56
2021/07/14 08:20:23;;;;;;;6.63;3.60;;;19.90;98.00;;;;;;5051304;28;20061;-54
2021/07/14 08:22:50;;;;;;;10.32;3.90;;;19.80;98.30;;;;;;5053486;28;20039;-57
2021/07/14 08:25:17;;;;;;;9.57;3.70;;;19.90;98.40;;;;;;5052827;28;20384;-57
2021/07/14 08:27:43;;;;;;;10.95;3.65;;;19.90;98.10;;;;;;5052744;28;20059;-56
2021/07/14 08:30:11;;;;;;;6.13;3.97;;;20.00;97.60;;;;;;5052739;28;20099;-53
2021/07/14 08:32:37;;;;;;;6.43;3.70;;;20.10;97.60;;;;;;5045964;28;20044;-56
2021/07/14 08:35:04;;;;;;;8.45;3.70;;;20.20;97.50;;;;;;5043401;28;20021;-54
2021/07/14 08:37:30;;;;;;;6.00;3.97;;;20.30;97.50;;;;;;5038764;28;20029;-57
2021/07/14 08:39:56;;;;;;;9.50;3.72;;;20.40;97.20;;;;;;5031499;28;20024;-56
2021/07/14 08:42:24;;;;;;;8.25;4.45;;;20.50;96.90;;;;;;5046233;28;20017;-54
2021/07/14 08:44:51;;;;;;;9.45;3.85;;;20.50;96.50;;;;;;5051241;28;20033;-54
2021/07/14 08:47:17;;;;;;;10.35;3.65;;;20.50;96.70;;;;;;5056647;28;20041;-56
2021/07/14 08:49:45;;;;;;;12.38;4.20;;;20.70;96.40;;;;;;5055991;28;20028;-53
2021/07/14 08:52:12;;;;;;;6.97;3.83;;;20.80;96.50;;;;;;5056614;28;20033;-54
2021/07/14 08:54:42;;;;;;;11.35;4.68;;;20.90;96.30;;;;;;5056763;28;20523;-56
2021/07/14 08:57:13;;;;;;;7.47;4.28;;;20.90;96.30;;;;;;5056253;28;20072;-54
2021/07/14 08:59:39;;;;;;;8.52;4.55;;;21.00;96.10;;;;;;5056412;28;20059;-56
2021/07/14 09:02:06;;;;;;;6.95;4.30;;;21.10;95.70;;;;;;5039720;28;20040;-55
2021/07/14 09:04:32;;;;;;;4.38;3.65;;;21.00;95.60;;;;;;5055588;28;20123;-57
2021/07/14 09:06:58;;;;;;;11.02;3.80;;;20.80;96.10;;;;;;5051987;28;20099;-57
2021/07/14 09:09:23;;;;;;;7.03;4.13;;;20.90;96.20;;;;;;5059412;28;20473;-57
2021/07/14 09:11:54;;;;;;;8.48;3.80;;;20.90;95.90;;;;;;5034901;28;20120;-58
2021/07/14 09:14:37;;;;;;;5.90;3.60;;;21.00;95.80;;;;;;5059721;28;20075;-55
2021/07/14 09:17:24;;;;;;;6.30;4.13;;;21.00;95.80;;;;;;5059047;28;20013;-58
2021/07/14 09:20:22;;;;;;;8.93;4.43;;;20.90;95.70;;;;;;5053304;28;20449;-56
2021/07/14 09:23:00;;;;;;;5.03;3.70;;;20.90;95.70;;;;;;5026064;28;20043;-52
2021/07/14 09:25:25;;;;;;;6.50;4.00;;;21.20;95.50;;;;;;5046559;28;20028;-56
2021/07/14 09:28:00;;;;;;;7.30;3.85;;;21.20;95.60;;;;;;5049332;28;20029;-57
2021/07/14 09:30:29;;;;;;;8.70;4.07;;;21.40;95.40;;;;;;5035305;28;20032;-57
2021/07/14 09:33:02;;;;;;;9.63;4.55;;;21.60;95.40;;;;;;5039259;28;20033;-54
2021/07/14 09:35:47;;;;;;;9.32;4.63;;;21.90;94.90;;;;;;5053184;28;20504;-59
2021/07/14 09:38:19;;;;;;;10.43;4.40;;;22.10;94.50;;;;;;5055480;28;20422;-53
2021/07/14 09:40:47;;;;;;;10.88;4.70;;;21.90;94.50;;;;;;5055105;28;20397;-57
2021/07/14 09:43:15;;;;;;;8.13;4.45;;;21.60;94.50;;;;;;5055515;28;20037;-57
2021/07/14 09:45:53;;;;;;;9.95;5.32;;;21.30;94.90;;;;;;5054590;28;20036;-58
2021/07/14 09:48:27;;;;;;;8.55;4.07;;;21.20;95.50;;;;;;5055449;28;20039;-59
2021/07/14 09:51:09;;;;;;;10.68;5.25;;;21.30;95.20;;;;;;5036641;28;20040;-57
2021/07/14 09:53:37;;;;;;;7.35;4.63;;;21.30;95.20;;;;;;5047857;28;20064;-58
2021/07/14 09:56:17;;;;;;;6.55;4.50;;;21.20;95.40;;;;;;5036603;28;20112;-59
2021/07/14 09:58:44;;;;;;;8.40;5.38;;;21.20;95.70;;;;;;5055254;28;20033;-58
2021/07/14 10:01:15;;;;;;;11.98;6.70;;;21.00;95.90;;;;;;5037068;28;20024;-57
2021/07/14 10:03:51;;;;;;;9.65;5.53;;;20.80;96.30;;;;;;5053959;28;20083;-59
2021/07/14 10:06:19;;;;;;;8.90;4.90;;;20.70;96.10;;;;;;5040186;28;20040;-57
2021/07/14 10:08:47;;;;;;;8.68;4.50;;;20.50;96.50;;;;;;5055301;28;20044;-62
2021/07/14 10:11:24;;;;;;;9.05;4.53;;;20.40;96.90;;;;;;5054548;28;20407;-57
2021/07/14 10:13:56;;;;;;;12.85;11.23;;;20.30;97.40;;;;;;5042197;28;20109;-56
2021/07/14 10:16:25;;;;;;;7.53;5.70;;;20.20;97.50;;;;;;5038631;28;20041;-55
2021/07/14 10:19:09;;;;;;;8.80;5.40;;;20.20;97.40;;;;;;5049693;28;20030;-55
2021/07/14 10:21:48;;;;;;;5.70;4.80;;;20.00;97.60;;;;;;5050685;28;20054;-56
2021/07/14 10:24:19;;;;;;;7.22;5.90;;;20.10;97.40;;;;;;5054647;28;20029;-56
2021/07/14 10:26:47;;;;;;;5.70;5.10;;;20.10;97.40;;;;;;5053910;28;20620;-51
2021/07/14 10:29:13;;;;;;;7.10;4.72;;;20.10;97.20;;;;;;5054443;28;20021;-56
2021/07/14 10:31:40;;;;;;;5.55;4.65;;;20.00;97.20;;;;;;5051653;28;20116;-57
2021/07/14 10:34:08;;;;;;;9.25;4.70;;;19.80;97.00;;;;;;5053796;28;20383;-56
2021/07/14 10:36:36;;;;;;;9.20;4.55;;;19.70;97.20;;;;;;5046186;28;20045;-54
2021/07/14 10:39:05;;;;;;;6.65;4.82;;;19.70;97.00;;;;;;5055952;28;20489;-56
2021/07/14 10:41:31;;;;;;;10.68;4.97;;;19.70;97.30;;;;;;5044287;28;20033;-55
2021/07/14 10:43:59;;;;;;;5.93;4.57;;;19.70;97.40;;;;;;5045582;28;20057;-58
2021/07/14 10:46:28;;;;;;;7.93;4.63;;;19.70;97.60;;;;;;5053324;28;20036;-56
2021/07/14 10:48:55;;;;;;;9.27;5.05;;;19.80;97.80;;;;;;5053011;28;20033;-53
2021/07/14 10:51:25;;;;;;;7.40;4.90;;;19.80;97.70;;;;;;5029838;28;20022;-52
2021/07/14 10:53:58;;;;;;;6.43;4.53;;;19.80;97.50;;;;;;5059539;28;20033;-51
2021/07/14 10:56:26;;;;;;;10.93;4.63;;;20.00;97.10;;;;;;5047193;28;20128;-57
2021/07/14 10:58:52;;;;;;;5.28;4.72;;;20.00;97.10;;;;;;5048656;28;20032;-55
2021/07/14 11:01:39;;;;;;;6.70;4.70;;;20.10;96.80;;;;;;5054243;28;20108;-55
2021/07/14 11:04:10;;;;;;;9.25;4.90;;;19.90;96.70;;;;;;5058833;28;20388;-51
2021/07/14 11:07:03;;;;;;;6.55;4.85;;;19.80;97.10;;;;;;5039715;28;20029;-55
2021/07/14 11:09:43;;;;;;;6.80;4.55;;;19.90;96.40;;;;;;5054269;28;20044;-56
2021/07/14 11:12:14;;;;;;;6.38;4.75;;;19.90;96.60;;;;;;5023642;28;20040;-54
2021/07/14 11:14:48;;;;;;;6.55;4.60;;;19.90;96.40;;;;;;5014638;28;20033;-57
2021/07/14 11:17:14;;;;;;;7.38;5.03;;;19.80;96.40;;;;;;5052122;28;20025;-54
2021/07/14 11:19:49;;;;;;;7.47;5.57;;;19.70;96.50;;;;;;5035156;28;20033;-57
2021/07/14 11:22:16;;;;;;;6.18;4.55;;;19.70;96.40;;;;;;5052518;28;20111;-51
2021/07/14 11:24:46;;;;;;;5.68;4.90;;;19.70;96.40;;;;;;5054153;28;20048;-57
2021/07/14 11:27:27;;;;;;;6.95;5.22;;;19.80;96.40;;;;;;5052851;28;20039;-57
2021/07/14 11:30:02;;;;;;;8.45;4.90;;;19.90;96.30;;;;;;5053906;28;20377;-59
2021/07/14 11:32:34;;;;;;;6.13;4.32;;;20.00;96.60;;;;;;5040652;28;20043;-56
2021/07/14 11:35:00;;;;;;;7.00;4.53;;;20.10;96.20;;;;;;5035843;28;20100;-59
2021/07/14 11:37:33;;;;;;;6.22;4.70;;;20.10;96.00;;;;;;5052883;28;20112;-56
2021/07/14 11:40:18;;;;;;;5.28;4.68;;;20.20;95.90;;;;;;5053278;28;20049;-58
2021/07/14 11:42:47;;;;;;;6.18;4.50;;;20.40;95.50;;;;;;5033566;28;20026;-55
2021/07/14 11:45:13;;;;;;;5.90;4.70;;;20.60;95.10;;;;;;5047294;28;20036;-56
2021/07/14 11:47:38;;;;;;;6.03;4.20;;;20.70;94.90;;;;;;5053243;28;20126;-57
2021/07/14 11:50:05;;;;;;;6.38;4.55;;;20.70;95.00;;;;;;5053780;28;20517;-55
2021/07/14 11:52:45;;;;;;;7.60;5.50;;;20.70;94.80;;;;;;5053518;28;20400;-57
2021/07/14 11:55:23;;;;;;;5.43;4.93;;;20.90;94.30;;;;;;5053010;28;20025;-57
2021/07/14 11:57:52;;;;;;;4.90;4.18;;;20.80;94.40;;;;;;5052733;28;20086;-58
2021/07/14 12:00:31;;;;;;;4.80;4.35;;;20.70;94.10;;;;;;5053402;28;20021;-55
2021/07/14 12:03:00;;;;;;;5.78;4.90;;;20.60;94.30;;;;;;5053005;28;20037;-58
2021/07/14 12:05:37;;;;;;;5.35;4.35;;;20.50;94.70;;;;;;5044515;28;20061;-55
2021/07/14 12:08:13;;;;;;;5.20;4.70;;;20.40;95.10;;;;;;5048225;28;20037;-58
2021/07/14 12:10:40;;;;;;;5.38;4.75;;;20.50;95.10;;;;;;5052011;28;20048;-55
2021/07/14 12:13:06;;;;;;;7.32;4.25;;;20.50;95.10;;;;;;5045332;28;20034;-54
2021/07/14 12:15:45;;;;;;;5.43;4.68;;;20.70;94.90;;;;;;5052478;28;20029;-58
2021/07/14 12:18:12;;;;;;;6.35;4.85;;;20.70;94.40;;;;;;5052547;28;20021;-55
2021/07/14 12:20:47;;;;;;;5.55;4.95;;;20.80;94.60;;;;;;5042684;28;20082;-56
2021/07/14 12:23:17;;;;;;;5.25;4.50;;;21.10;94.00;;;;;;5056804;28;20033;-56
2021/07/14 12:25:43;;;;;;;7.28;4.40;;;21.50;93.20;;;;;;5022070;28;20037;-55
2021/07/14 12:28:13;;;;;;;6.75;4.22;;;21.80;93.20;;;;;;5056471;28;20174;-56
2021/07/14 12:30:41;;;;;;;6.50;4.70;;;22.10;92.40;;;;;;5033799;28;20374;-54
2021/07/14 12:33:08;;;;;;;5.03;4.63;;;22.30;92.50;;;;;;5055337;28;20037;-55
2021/07/14 12:35:42;;;;;;;7.68;4.47;;;22.40;91.80;;;;;;5055775;28;20531;-56
2021/07/14 12:38:15;;;;;;;7.18;4.57;;;22.70;91.50;;;;;;5056084;28;20124;-56
2021/07/14 12:40:46;;;;;;;6.45;5.05;;;22.90;91.00;;;;;;5052142;28;20026;-52
2021/07/14 12:43:15;;;;;;;5.50;4.93;;;22.60;91.30;;;;;;5046325;28;20029;-56
2021/07/14 12:45:43;;;;;;;9.38;5.30;;;22.40;91.90;;;;;;5054494;28;20037;-60
2021/07/14 12:48:11;;;;;;;6.38;5.05;;;22.20;92.10;;;;;;5059879;28;20041;-57
2021/07/14 12:50:44;;;;;;;5.97;4.80;;;22.10;92.10;;;;;;5058210;28;20060;-54
2021/07/14 12:53:10;;;;;;;6.10;4.75;;;22.20;92.40;;;;;;5056527;28;20112;-54
2021/07/14 12:55:38;;;;;;;7.45;4.97;;;22.10;92.40;;;;;;5056460;28;20052;-56
2021/07/14 12:58:16;;;;;;;5.68;4.82;;;22.00;92.80;;;;;;5056671;28;20017;-53